sensor_id;sensor_type;location;lat;lon;timestamp;temperature;humidity
13697;DHT22;6920;50.080;8.226;2023-06-24T00:02:32;19.80;99.90
13697;DHT22;6920;50.080;8.226;2023-06-24T00:05:02;19.70;99.90
13697;DHT22;6920;50.080;8.226;2023-06-24T00:15:09;19.30;99.90
13697;DHT22;6920;50.080;8.226;2023-06-24T00:27:38;19.00;99.90
13697;DHT22;6920;50.080;8.226;2023-06-24T00:30:06;18.90;99.90
13697;DHT22;6920;50.080;8.226;2023-06-24T00:45:26;19.00;99.90
13697;DHT22;6920;50.080;8.226;2023-06-24T00:48:00;18.90;99.90
13697;DHT22;6920;50.080;8.226;2023-06-24T00:50:29;18.80;99.90
13697;DHT22;6920;50.080;8.226;2023-06-24T01:05:23;18.90;99.90
13697;DHT22;6920;50.080;8.226;2023-06-24T01:07:53;18.90;99.90
13697;DHT22;6920;50.080;8.226;2023-06-24T01:15:35;18.50;99.90
13697;DHT22;6920;50.080;8.226;2023-06-24T01:20:44;18.20;99.90
13697;DHT22;6920;50.080;8.226;2023-06-24T01:31:32;18.00;99.90
13697;DHT22;6920;50.080;8.226;2023-06-24T01:34:06;18.00;99.90
13697;DHT22;6920;50.080;8.226;2023-06-24T01:36:54;18.00;99.90
13697;DHT22;6920;50.080;8.226;2023-06-24T01:39:52;18.00;99.90
13697;DHT22;6920;50.080;8.226;2023-06-24T01:47:58;18.00;99.90
13697;DHT22;6920;50.080;8.226;2023-06-24T01:50:45;17.90;99.90
13697;DHT22;6920;50.080;8.226;2023-06-24T02:08:17;17.70;99.90
13697;DHT22;6920;50.080;8.226;2023-06-24T02:10:47;17.70;99.90
13697;DHT22;6920;50.080;8.226;2023-06-24T02:13:16;17.70;99.90
13697;DHT22;6920;50.080;8.226;2023-06-24T02:25:50;17.60;99.90
13697;DHT22;6920;50.080;8.226;2023-06-24T02:30:47;17.60;99.90
13697;DHT22;6920;50.080;8.226;2023-06-24T02:45:40;17.60;99.90
13697;DHT22;6920;50.080;8.226;2023-06-24T02:48:09;17.60;99.90
13697;DHT22;6920;50.080;8.226;2023-06-24T03:00:37;17.30;99.90
13697;DHT22;6920;50.080;8.226;2023-06-24T03:11:03;17.40;99.90
13697;DHT22;6920;50.080;8.226;2023-06-24T03:16:01;17.40;99.90
13697;DHT22;6920;50.080;8.226;2023-06-24T03:18:28;17.30;99.90
13697;DHT22;6920;50.080;8.226;2023-06-24T03:20:57;17.20;99.90
13697;DHT22;6920;50.080;8.226;2023-06-24T03:28:24;17.00;99.90
13697;DHT22;6920;50.080;8.226;2023-06-24T03:38:20;17.00;99.90
13697;DHT22;6920;50.080;8.226;2023-06-24T03:45:53;16.80;99.90
13697;DHT22;6920;50.080;8.226;2023-06-24T03:50:56;16.80;99.90
13697;DHT22;6920;50.080;8.226;2023-06-24T03:55:55;16.90;99.90
13697;DHT22;6920;50.080;8.226;2023-06-24T04:16:05;16.90;99.90
13697;DHT22;6920;50.080;8.226;2023-06-24T04:18:45;16.90;99.90
13697;DHT22;6920;50.080;8.226;2023-06-24T04:31:05;17.10;99.90
13697;DHT22;6920;50.080;8.226;2023-06-24T04:36:03;17.10;99.90
13697;DHT22;6920;50.080;8.226;2023-06-24T04:40:59;17.20;99.90
13697;DHT22;6920;50.080;8.226;2023-06-24T04:53:28;17.40;99.90
13697;DHT22;6920;50.080;8.226;2023-06-24T04:58:23;17.60;99.90
13697;DHT22;6920;50.080;8.226;2023-06-24T05:10:53;17.80;99.90
13697;DHT22;6920;50.080;8.226;2023-06-24T05:15:50;17.90;99.90
13697;DHT22;6920;50.080;8.226;2023-06-24T05:18:18;17.90;99.90
13697;DHT22;6920;50.080;8.226;2023-06-24T05:23:21;18.20;99.90
13697;DHT22;6920;50.080;8.226;2023-06-24T05:28:19;18.40;99.90
13697;DHT22;6920;50.080;8.226;2023-06-24T05:33:14;18.70;99.90
13697;DHT22;6920;50.080;8.226;2023-06-24T05:35:43;18.80;99.90
13697;DHT22;6920;50.080;8.226;2023-06-24T05:38:10;18.80;99.90
13697;DHT22;6920;50.080;8.226;2023-06-24T05:40:39;19.00;99.90
13697;DHT22;6920;50.080;8.226;2023-06-24T05:43:08;19.00;99.90
13697;DHT22;6920;50.080;8.226;2023-06-24T05:45:36;19.00;99.90
13697;DHT22;6920;50.080;8.226;2023-06-24T05:48:07;19.20;99.90
13697;DHT22;6920;50.080;8.226;2023-06-24T05:50:34;19.50;99.90
13697;DHT22;6920;50.080;8.226;2023-06-24T05:53:05;19.50;99.90
13697;DHT22;6920;50.080;8.226;2023-06-24T05:55:33;19.60;99.90
13697;DHT22;6920;50.080;8.226;2023-06-24T05:58:04;19.70;99.90
13697;DHT22;6920;50.080;8.226;2023-06-24T06:03:07;19.90;99.90
13697;DHT22;6920;50.080;8.226;2023-06-24T06:05:38;20.20;99.90
13697;DHT22;6920;50.080;8.226;2023-06-24T06:08:07;20.30;99.90
13697;DHT22;6920;50.080;8.226;2023-06-24T06:10:34;20.40;99.90
13697;DHT22;6920;50.080;8.226;2023-06-24T06:13:04;20.50;99.90
13697;DHT22;6920;50.080;8.226;2023-06-24T06:15:37;20.70;99.90
13697;DHT22;6920;50.080;8.226;2023-06-24T06:18:06;20.80;99.90
13697;DHT22;6920;50.080;8.226;2023-06-24T06:20:35;21.00;99.90
13697;DHT22;6920;50.080;8.226;2023-06-24T06:23:03;21.60;99.90
13697;DHT22;6920;50.080;8.226;2023-06-24T06:25:32;22.30;99.90
13697;DHT22;6920;50.080;8.226;2023-06-24T06:28:00;23.10;99.90
13697;DHT22;6920;50.080;8.226;2023-06-24T06:30:30;23.50;99.90
13697;DHT22;6920;50.080;8.226;2023-06-24T06:33:01;24.10;99.90
13697;DHT22;6920;50.080;8.226;2023-06-24T06:35:28;24.00;99.90
13697;DHT22;6920;50.080;8.226;2023-06-24T06:37:58;23.90;99.90
13697;DHT22;6920;50.080;8.226;2023-06-24T06:40:28;24.00;99.90
13697;DHT22;6920;50.080;8.226;2023-06-24T06:42:58;24.30;99.90
13697;DHT22;6920;50.080;8.226;2023-06-24T06:45:31;24.30;99.90
13697;DHT22;6920;50.080;8.226;2023-06-24T06:48:02;24.40;99.90
13697;DHT22;6920;50.080;8.226;2023-06-24T06:50:49;24.60;99.90
13697;DHT22;6920;50.080;8.226;2023-06-24T06:53:44;24.90;99.90
13697;DHT22;6920;50.080;8.226;2023-06-24T06:56:30;24.80;99.90
13697;DHT22;6920;50.080;8.226;2023-06-24T06:59:03;24.70;99.90
13697;DHT22;6920;50.080;8.226;2023-06-24T07:01:33;24.20;99.90
13697;DHT22;6920;50.080;8.226;2023-06-24T07:04:07;24.00;99.90
13697;DHT22;6920;50.080;8.226;2023-06-24T07:06:39;24.20;99.90
13697;DHT22;6920;50.080;8.226;2023-06-24T07:09:09;24.20;99.90
13697;DHT22;6920;50.080;8.226;2023-06-24T07:11:37;24.30;99.90
13697;DHT22;6920;50.080;8.226;2023-06-24T07:14:07;24.40;99.90
13697;DHT22;6920;50.080;8.226;2023-06-24T07:16:38;24.70;99.90
13697;DHT22;6920;50.080;8.226;2023-06-24T07:19:07;25.00;99.90
13697;DHT22;6920;50.080;8.226;2023-06-24T07:21:35;25.20;99.90
13697;DHT22;6920;50.080;8.226;2023-06-24T07:24:04;25.40;99.90
13697;DHT22;6920;50.080;8.226;2023-06-24T07:26:33;25.50;99.90
13697;DHT22;6920;50.080;8.226;2023-06-24T07:29:06;25.30;99.90
13697;DHT22;6920;50.080;8.226;2023-06-24T07:31:37;25.60;99.90
13697;DHT22;6920;50.080;8.226;2023-06-24T07:34:06;25.30;99.90
13697;DHT22;6920;50.080;8.226;2023-06-24T07:36:34;25.60;99.90
13697;DHT22;6920;50.080;8.226;2023-06-24T07:39:04;25.80;99.90
13697;DHT22;6920;50.080;8.226;2023-06-24T07:41:32;26.10;99.90
13697;DHT22;6920;50.080;8.226;2023-06-24T07:44:07;26.40;99.90
13697;DHT22;6920;50.080;8.226;2023-06-24T07:46:41;26.40;99.90
13697;DHT22;6920;50.080;8.226;2023-06-24T07:49:11;26.30;99.90
13697;DHT22;6920;50.080;8.226;2023-06-24T07:51:40;26.10;99.90
13697;DHT22;6920;50.080;8.226;2023-06-24T07:54:12;26.10;99.90
13697;DHT22;6920;50.080;8.226;2023-06-24T07:56:43;26.60;99.90
13697;DHT22;6920;50.080;8.226;2023-06-24T07:59:20;26.60;99.90
13697;DHT22;6920;50.080;8.226;2023-06-24T08:01:51;26.60;99.90
13697;DHT22;6920;50.080;8.226;2023-06-24T08:06:47;27.30;99.90
13697;DHT22;6920;50.080;8.226;2023-06-24T08:09:16;27.50;99.90
13697;DHT22;6920;50.080;8.226;2023-06-24T08:11:43;27.50;99.90
13697;DHT22;6920;50.080;8.226;2023-06-24T08:14:11;27.50;99.90
13697;DHT22;6920;50.080;8.226;2023-06-24T08:16:39;27.60;99.90
13697;DHT22;6920;50.080;8.226;2023-06-24T08:19:10;27.70;99.90
13697;DHT22;6920;50.080;8.226;2023-06-24T08:21:37;27.90;99.90
13697;DHT22;6920;50.080;8.226;2023-06-24T08:24:05;28.00;99.90
13697;DHT22;6920;50.080;8.226;2023-06-24T08:29:37;28.00;99.90
13697;DHT22;6920;50.080;8.226;2023-06-24T08:32:04;28.20;99.10
13697;DHT22;6920;50.080;8.226;2023-06-24T08:34:34;28.30;98.60
13697;DHT22;6920;50.080;8.226;2023-06-24T08:37:01;28.40;98.70
13697;DHT22;6920;50.080;8.226;2023-06-24T08:39:28;28.40;98.60
13697;DHT22;6920;50.080;8.226;2023-06-24T08:41:56;28.30;98.80
13697;DHT22;6920;50.080;8.226;2023-06-24T08:44:23;28.30;98.70
13697;DHT22;6920;50.080;8.226;2023-06-24T08:49:27;28.90;97.70
13697;DHT22;6920;50.080;8.226;2023-06-24T08:52:00;29.10;97.40
13697;DHT22;6920;50.080;8.226;2023-06-24T08:54:28;28.60;97.90
13697;DHT22;6920;50.080;8.226;2023-06-24T08:56:57;28.80;98.20
13697;DHT22;6920;50.080;8.226;2023-06-24T08:59:26;28.70;97.10
13697;DHT22;6920;50.080;8.226;2023-06-24T09:01:53;28.90;96.60
13697;DHT22;6920;50.080;8.226;2023-06-24T09:04:20;28.80;95.80
13697;DHT22;6920;50.080;8.226;2023-06-24T09:06:48;28.80;96.00
13697;DHT22;6920;50.080;8.226;2023-06-24T09:09:20;29.20;96.20
13697;DHT22;6920;50.080;8.226;2023-06-24T09:11:55;29.10;96.20
13697;DHT22;6920;50.080;8.226;2023-06-24T09:14:23;29.10;96.20
13697;DHT22;6920;50.080;8.226;2023-06-24T09:16:53;29.40;96.30
13697;DHT22;6920;50.080;8.226;2023-06-24T09:19:22;29.60;96.20
13697;DHT22;6920;50.080;8.226;2023-06-24T09:24:20;29.90;95.30
13697;DHT22;6920;50.080;8.226;2023-06-24T09:26:47;29.70;95.00
13697;DHT22;6920;50.080;8.226;2023-06-24T09:29:14;29.50;94.70
13697;DHT22;6920;50.080;8.226;2023-06-24T09:31:50;29.50;94.30
13697;DHT22;6920;50.080;8.226;2023-06-24T09:34:19;29.60;94.10
13697;DHT22;6920;50.080;8.226;2023-06-24T09:36:51;29.50;94.30
13697;DHT22;6920;50.080;8.226;2023-06-24T09:39:22;29.20;95.30
13697;DHT22;6920;50.080;8.226;2023-06-24T09:41:54;29.90;94.80
13697;DHT22;6920;50.080;8.226;2023-06-24T09:44:22;29.60;94.50
13697;DHT22;6920;50.080;8.226;2023-06-24T09:49:17;29.40;94.50
13697;DHT22;6920;50.080;8.226;2023-06-24T09:51:46;29.70;94.20
13697;DHT22;6920;50.080;8.226;2023-06-24T09:54:16;30.40;92.90
13697;DHT22;6920;50.080;8.226;2023-06-24T09:56:48;30.50;92.90
13697;DHT22;6920;50.080;8.226;2023-06-24T09:59:17;30.70;92.10
13697;DHT22;6920;50.080;8.226;2023-06-24T10:01:47;31.00;92.10
13697;DHT22;6920;50.080;8.226;2023-06-24T10:04:17;31.00;92.30
13697;DHT22;6920;50.080;8.226;2023-06-24T10:06:45;30.80;91.40
13697;DHT22;6920;50.080;8.226;2023-06-24T10:09:13;30.90;91.30
13697;DHT22;6920;50.080;8.226;2023-06-24T10:11:50;31.00;90.70
13697;DHT22;6920;50.080;8.226;2023-06-24T10:14:17;31.20;91.00
13697;DHT22;6920;50.080;8.226;2023-06-24T10:16:50;30.90;90.20
13697;DHT22;6920;50.080;8.226;2023-06-24T10:19:20;30.90;90.40
13697;DHT22;6920;50.080;8.226;2023-06-24T10:21:52;31.00;90.70
13697;DHT22;6920;50.080;8.226;2023-06-24T10:24:33;30.90;90.20
13697;DHT22;6920;50.080;8.226;2023-06-24T10:27:04;31.10;90.70
13697;DHT22;6920;50.080;8.226;2023-06-24T10:29:45;31.10;90.30
13697;DHT22;6920;50.080;8.226;2023-06-24T10:32:14;31.30;90.20
13697;DHT22;6920;50.080;8.226;2023-06-24T10:34:46;31.40;90.00
13697;DHT22;6920;50.080;8.226;2023-06-24T10:37:20;31.50;90.50
13697;DHT22;6920;50.080;8.226;2023-06-24T10:39:52;31.70;90.00
13697;DHT22;6920;50.080;8.226;2023-06-24T10:42:39;31.20;88.70
13697;DHT22;6920;50.080;8.226;2023-06-24T10:45:18;30.80;88.30
13697;DHT22;6920;50.080;8.226;2023-06-24T10:47:48;30.00;89.30
13697;DHT22;6920;50.080;8.226;2023-06-24T10:50:20;29.70;89.80
13697;DHT22;6920;50.080;8.226;2023-06-24T10:52:52;29.70;90.30
13697;DHT22;6920;50.080;8.226;2023-06-24T10:55:25;29.80;90.40
13697;DHT22;6920;50.080;8.226;2023-06-24T11:03:14;29.90;88.80
13697;DHT22;6920;50.080;8.226;2023-06-24T11:05:46;30.30;89.10
13697;DHT22;6920;50.080;8.226;2023-06-24T11:08:16;30.90;88.10
13697;DHT22;6920;50.080;8.226;2023-06-24T11:13:15;30.60;88.20
13697;DHT22;6920;50.080;8.226;2023-06-24T11:15:44;30.90;88.60
13697;DHT22;6920;50.080;8.226;2023-06-24T11:18:12;31.40;85.40
13697;DHT22;6920;50.080;8.226;2023-06-24T11:20:41;31.20;85.50
13697;DHT22;6920;50.080;8.226;2023-06-24T11:23:21;31.20;84.60
13697;DHT22;6920;50.080;8.226;2023-06-24T11:25:50;31.30;85.60
13697;DHT22;6920;50.080;8.226;2023-06-24T11:28:21;31.20;85.10
13697;DHT22;6920;50.080;8.226;2023-06-24T11:30:51;31.40;83.90
13697;DHT22;6920;50.080;8.226;2023-06-24T11:33:29;31.30;84.40
13697;DHT22;6920;50.080;8.226;2023-06-24T11:36:09;31.10;83.00
13697;DHT22;6920;50.080;8.226;2023-06-24T11:38:38;31.40;84.40
13697;DHT22;6920;50.080;8.226;2023-06-24T11:41:05;31.80;84.80
13697;DHT22;6920;50.080;8.226;2023-06-24T11:43:36;31.80;83.10
13697;DHT22;6920;50.080;8.226;2023-06-24T11:46:06;32.00;82.70
13697;DHT22;6920;50.080;8.226;2023-06-24T11:48:39;32.50;84.00
13697;DHT22;6920;50.080;8.226;2023-06-24T11:51:13;32.80;81.50
13697;DHT22;6920;50.080;8.226;2023-06-24T11:53:41;32.50;81.50
13697;DHT22;6920;50.080;8.226;2023-06-24T11:56:10;31.20;80.60
13697;DHT22;6920;50.080;8.226;2023-06-24T11:58:48;29.80;84.50
13697;DHT22;6920;50.080;8.226;2023-06-24T12:01:19;30.30;83.20
13697;DHT22;6920;50.080;8.226;2023-06-24T12:03:47;30.10;82.90
13697;DHT22;6920;50.080;8.226;2023-06-24T12:06:17;30.50;83.80
13697;DHT22;6920;50.080;8.226;2023-06-24T12:08:46;30.70;82.40
13697;DHT22;6920;50.080;8.226;2023-06-24T12:11:14;31.40;81.70
13697;DHT22;6920;50.080;8.226;2023-06-24T12:13:49;32.00;81.90
13697;DHT22;6920;50.080;8.226;2023-06-24T12:16:17;32.50;79.20
13697;DHT22;6920;50.080;8.226;2023-06-24T12:21:11;32.30;78.90
13697;DHT22;6920;50.080;8.226;2023-06-24T12:23:41;32.20;79.70
13697;DHT22;6920;50.080;8.226;2023-06-24T12:26:08;32.40;79.60
13697;DHT22;6920;50.080;8.226;2023-06-24T12:28:37;31.80;79.70
13697;DHT22;6920;50.080;8.226;2023-06-24T12:31:06;32.20;78.80
13697;DHT22;6920;50.080;8.226;2023-06-24T12:33:34;32.40;79.60
13697;DHT22;6920;50.080;8.226;2023-06-24T12:36:03;32.10;78.70
13697;DHT22;6920;50.080;8.226;2023-06-24T12:38:30;31.90;80.10
13697;DHT22;6920;50.080;8.226;2023-06-24T12:40:58;31.00;79.30
13697;DHT22;6920;50.080;8.226;2023-06-24T12:43:25;30.60;80.90
13697;DHT22;6920;50.080;8.226;2023-06-24T12:45:56;30.90;79.80
13697;DHT22;6920;50.080;8.226;2023-06-24T12:48:43;31.00;81.20
13697;DHT22;6920;50.080;8.226;2023-06-24T12:51:11;31.60;79.40
13697;DHT22;6920;50.080;8.226;2023-06-24T12:53:40;31.30;81.90
13697;DHT22;6920;50.080;8.226;2023-06-24T12:56:11;30.60;79.50
13697;DHT22;6920;50.080;8.226;2023-06-24T12:58:40;30.20;79.70
13697;DHT22;6920;50.080;8.226;2023-06-24T13:01:08;29.90;81.80
13697;DHT22;6920;50.080;8.226;2023-06-24T13:03:36;29.80;81.30
13697;DHT22;6920;50.080;8.226;2023-06-24T13:06:07;29.90;82.50
13697;DHT22;6920;50.080;8.226;2023-06-24T13:08:34;29.60;82.50
13697;DHT22;6920;50.080;8.226;2023-06-24T13:11:03;29.50;81.80
13697;DHT22;6920;50.080;8.226;2023-06-24T13:16:02;29.10;82.90
13697;DHT22;6920;50.080;8.226;2023-06-24T13:18:29;29.30;82.60
13697;DHT22;6920;50.080;8.226;2023-06-24T13:20:58;29.30;81.80
13697;DHT22;6920;50.080;8.226;2023-06-24T13:23:32;29.10;82.10
13697;DHT22;6920;50.080;8.226;2023-06-24T13:26:00;29.00;83.90
13697;DHT22;6920;50.080;8.226;2023-06-24T13:28:28;28.90;83.90
13697;DHT22;6920;50.080;8.226;2023-06-24T13:30:58;28.60;83.10
13697;DHT22;6920;50.080;8.226;2023-06-24T13:33:28;28.90;82.70
13697;DHT22;6920;50.080;8.226;2023-06-24T13:35:56;29.10;82.90
13697;DHT22;6920;50.080;8.226;2023-06-24T13:38:28;29.10;82.80
13697;DHT22;6920;50.080;8.226;2023-06-24T13:40:56;29.20;83.70
13697;DHT22;6920;50.080;8.226;2023-06-24T13:43:25;29.00;84.50
13697;DHT22;6920;50.080;8.226;2023-06-24T13:45:54;28.90;82.00
13697;DHT22;6920;50.080;8.226;2023-06-24T13:48:27;28.90;82.80
13697;DHT22;6920;50.080;8.226;2023-06-24T13:50:56;29.10;82.00
13697;DHT22;6920;50.080;8.226;2023-06-24T13:53:25;29.60;83.60
13697;DHT22;6920;50.080;8.226;2023-06-24T13:56:14;30.30;84.20
13697;DHT22;6920;50.080;8.226;2023-06-24T13:58:42;31.20;80.10
13697;DHT22;6920;50.080;8.226;2023-06-24T14:01:10;31.30;79.60
13697;DHT22;6920;50.080;8.226;2023-06-24T14:03:38;31.10;78.90
13697;DHT22;6920;50.080;8.226;2023-06-24T14:06:08;31.60;80.20
13697;DHT22;6920;50.080;8.226;2023-06-24T14:08:37;31.80;79.30
13697;DHT22;6920;50.080;8.226;2023-06-24T14:11:04;31.80;77.50
13697;DHT22;6920;50.080;8.226;2023-06-24T14:13:33;31.30;78.20
13697;DHT22;6920;50.080;8.226;2023-06-24T14:16:02;31.20;79.30
13697;DHT22;6920;50.080;8.226;2023-06-24T14:18:31;31.00;80.70
13697;DHT22;6920;50.080;8.226;2023-06-24T14:21:02;30.60;79.30
13697;DHT22;6920;50.080;8.226;2023-06-24T14:23:35;30.60;78.00
13697;DHT22;6920;50.080;8.226;2023-06-24T14:26:05;30.30;78.80
13697;DHT22;6920;50.080;8.226;2023-06-24T14:28:42;30.20;77.80
13697;DHT22;6920;50.080;8.226;2023-06-24T14:31:14;29.90;78.20
13697;DHT22;6920;50.080;8.226;2023-06-24T14:33:41;29.80;81.70
13697;DHT22;6920;50.080;8.226;2023-06-24T14:36:09;30.10;78.90
13697;DHT22;6920;50.080;8.226;2023-06-24T14:38:38;30.40;79.40
13697;DHT22;6920;50.080;8.226;2023-06-24T14:41:09;30.40;80.00
13697;DHT22;6920;50.080;8.226;2023-06-24T14:43:40;30.30;79.10
13697;DHT22;6920;50.080;8.226;2023-06-24T14:48:36;31.10;80.30
13697;DHT22;6920;50.080;8.226;2023-06-24T14:51:05;31.30;77.30
13697;DHT22;6920;50.080;8.226;2023-06-24T14:53:32;31.50;75.90
13697;DHT22;6920;50.080;8.226;2023-06-24T14:56:00;31.60;76.50
13697;DHT22;6920;50.080;8.226;2023-06-24T14:58:28;31.60;76.40
13697;DHT22;6920;50.080;8.226;2023-06-24T15:00:59;31.90;75.90
13697;DHT22;6920;50.080;8.226;2023-06-24T15:03:30;31.80;75.80
13697;DHT22;6920;50.080;8.226;2023-06-24T15:05:59;31.80;75.50
13697;DHT22;6920;50.080;8.226;2023-06-24T15:08:29;31.30;76.30
13697;DHT22;6920;50.080;8.226;2023-06-24T15:11:00;31.60;77.30
13697;DHT22;6920;50.080;8.226;2023-06-24T15:13:29;31.70;76.60
13697;DHT22;6920;50.080;8.226;2023-06-24T15:16:02;31.50;75.10
13697;DHT22;6920;50.080;8.226;2023-06-24T15:18:33;31.30;75.60
13697;DHT22;6920;50.080;8.226;2023-06-24T15:21:02;31.00;78.40
13697;DHT22;6920;50.080;8.226;2023-06-24T15:23:32;30.60;77.60
13697;DHT22;6920;50.080;8.226;2023-06-24T15:25:59;30.40;78.00
13697;DHT22;6920;50.080;8.226;2023-06-24T15:28:27;30.80;77.60
13697;DHT22;6920;50.080;8.226;2023-06-24T15:30:59;30.80;77.40
13697;DHT22;6920;50.080;8.226;2023-06-24T15:33:26;30.60;76.70
13697;DHT22;6920;50.080;8.226;2023-06-24T15:35:55;31.10;76.30
13697;DHT22;6920;50.080;8.226;2023-06-24T15:38:26;31.30;75.80
13697;DHT22;6920;50.080;8.226;2023-06-24T15:40:55;31.30;78.10
13697;DHT22;6920;50.080;8.226;2023-06-24T15:48:22;31.00;75.60
13697;DHT22;6920;50.080;8.226;2023-06-24T15:50:50;30.40;76.50
13697;DHT22;6920;50.080;8.226;2023-06-24T15:53:18;30.30;77.80
13697;DHT22;6920;50.080;8.226;2023-06-24T15:55:47;30.40;77.60
13697;DHT22;6920;50.080;8.226;2023-06-24T15:58:14;30.40;76.50
13697;DHT22;6920;50.080;8.226;2023-06-24T16:00:45;30.20;75.60
13697;DHT22;6920;50.080;8.226;2023-06-24T16:03:13;30.00;76.20
13697;DHT22;6920;50.080;8.226;2023-06-24T16:05:46;29.90;77.50
13697;DHT22;6920;50.080;8.226;2023-06-24T16:08:15;29.80;77.40
13697;DHT22;6920;50.080;8.226;2023-06-24T16:10:43;29.70;79.30
13697;DHT22;6920;50.080;8.226;2023-06-24T16:13:13;29.60;77.80
13697;DHT22;6920;50.080;8.226;2023-06-24T16:15:40;29.30;79.60
13697;DHT22;6920;50.080;8.226;2023-06-24T16:18:09;29.30;78.90
13697;DHT22;6920;50.080;8.226;2023-06-24T16:23:07;29.10;78.60
13697;DHT22;6920;50.080;8.226;2023-06-24T16:25:35;29.20;79.80
13697;DHT22;6920;50.080;8.226;2023-06-24T16:28:04;29.10;78.90
13697;DHT22;6920;50.080;8.226;2023-06-24T16:30:31;29.20;79.00
13697;DHT22;6920;50.080;8.226;2023-06-24T16:33:00;29.20;78.90
13697;DHT22;6920;50.080;8.226;2023-06-24T16:35:27;29.40;80.00
13697;DHT22;6920;50.080;8.226;2023-06-24T16:37:56;29.30;78.20
13697;DHT22;6920;50.080;8.226;2023-06-24T16:40:26;29.30;80.30
13697;DHT22;6920;50.080;8.226;2023-06-24T16:42:55;29.30;78.90
13697;DHT22;6920;50.080;8.226;2023-06-24T16:45:22;29.20;78.50
13697;DHT22;6920;50.080;8.226;2023-06-24T16:47:51;29.00;78.30
13697;DHT22;6920;50.080;8.226;2023-06-24T16:50:19;28.80;80.40
13697;DHT22;6920;50.080;8.226;2023-06-24T16:52:48;28.80;80.30
13697;DHT22;6920;50.080;8.226;2023-06-24T16:55:17;28.90;79.40
13697;DHT22;6920;50.080;8.226;2023-06-24T16:57:48;28.90;79.80
13697;DHT22;6920;50.080;8.226;2023-06-24T17:00:17;29.00;79.00
13697;DHT22;6920;50.080;8.226;2023-06-24T17:02:45;29.00;80.10
13697;DHT22;6920;50.080;8.226;2023-06-24T17:07:42;28.90;79.60
13697;DHT22;6920;50.080;8.226;2023-06-24T17:10:11;29.00;81.80
13697;DHT22;6920;50.080;8.226;2023-06-24T17:12:39;29.00;79.80
13697;DHT22;6920;50.080;8.226;2023-06-24T17:15:09;29.00;79.70
13697;DHT22;6920;50.080;8.226;2023-06-24T17:17:37;29.10;80.30
13697;DHT22;6920;50.080;8.226;2023-06-24T17:20:09;29.00;78.80
13697;DHT22;6920;50.080;8.226;2023-06-24T17:22:37;28.90;79.70
13697;DHT22;6920;50.080;8.226;2023-06-24T17:25:05;28.60;79.30
13697;DHT22;6920;50.080;8.226;2023-06-24T17:27:33;28.70;79.70
13697;DHT22;6920;50.080;8.226;2023-06-24T17:30:01;28.70;80.50
13697;DHT22;6920;50.080;8.226;2023-06-24T17:32:30;28.60;81.00
13697;DHT22;6920;50.080;8.226;2023-06-24T17:34:59;28.60;81.60
13697;DHT22;6920;50.080;8.226;2023-06-24T17:37:26;28.50;80.90
13697;DHT22;6920;50.080;8.226;2023-06-24T17:39:54;28.60;81.00
13697;DHT22;6920;50.080;8.226;2023-06-24T17:42:22;28.60;83.50
13697;DHT22;6920;50.080;8.226;2023-06-24T17:44:49;28.50;82.90
13697;DHT22;6920;50.080;8.226;2023-06-24T17:47:19;28.40;81.80
13697;DHT22;6920;50.080;8.226;2023-06-24T18:54:28;26.60;91.10
13697;DHT22;6920;50.080;8.226;2023-06-24T18:59:22;26.50;91.30
13697;DHT22;6920;50.080;8.226;2023-06-24T19:01:49;26.40;91.40
13697;DHT22;6920;50.080;8.226;2023-06-24T19:04:16;26.30;92.70
13697;DHT22;6920;50.080;8.226;2023-06-24T19:06:43;26.20;93.50
13697;DHT22;6920;50.080;8.226;2023-06-24T19:09:10;26.00;94.10
13697;DHT22;6920;50.080;8.226;2023-06-24T19:11:39;25.80;94.40
13697;DHT22;6920;50.080;8.226;2023-06-24T19:14:06;25.80;94.60
13697;DHT22;6920;50.080;8.226;2023-06-24T19:16:34;25.50;94.70
13697;DHT22;6920;50.080;8.226;2023-06-24T19:19:01;25.50;94.90
13697;DHT22;6920;50.080;8.226;2023-06-24T19:21:28;25.50;95.20
13697;DHT22;6920;50.080;8.226;2023-06-24T19:28:51;25.00;95.60
13697;DHT22;6920;50.080;8.226;2023-06-24T19:31:19;24.90;95.80
13697;DHT22;6920;50.080;8.226;2023-06-24T19:36:14;24.80;95.70
13697;DHT22;6920;50.080;8.226;2023-06-24T19:38:41;24.70;96.10
13697;DHT22;6920;50.080;8.226;2023-06-24T19:41:08;24.60;96.10
13697;DHT22;6920;50.080;8.226;2023-06-24T19:46:06;24.40;96.30
13697;DHT22;6920;50.080;8.226;2023-06-24T19:51:01;24.40;96.40
13697;DHT22;6920;50.080;8.226;2023-06-24T19:53:28;24.30;96.80
13697;DHT22;6920;50.080;8.226;2023-06-24T19:55:55;24.30;96.70
13697;DHT22;6920;50.080;8.226;2023-06-24T19:58:22;24.10;96.90
13697;DHT22;6920;50.080;8.226;2023-06-24T20:00:49;24.00;96.90
13697;DHT22;6920;50.080;8.226;2023-06-24T20:03:17;24.10;97.00
13697;DHT22;6920;50.080;8.226;2023-06-24T20:05:44;24.00;96.90
13697;DHT22;6920;50.080;8.226;2023-06-24T20:08:11;23.80;96.90
13697;DHT22;6920;50.080;8.226;2023-06-24T20:10:39;23.80;97.10
13697;DHT22;6920;50.080;8.226;2023-06-24T20:15:34;23.80;97.50
13697;DHT22;6920;50.080;8.226;2023-06-24T20:18:01;23.70;97.30
13697;DHT22;6920;50.080;8.226;2023-06-24T20:20:29;23.60;97.30
13697;DHT22;6920;50.080;8.226;2023-06-24T20:22:56;23.50;97.30
13697;DHT22;6920;50.080;8.226;2023-06-24T20:27:51;23.50;97.30
13697;DHT22;6920;50.080;8.226;2023-06-24T20:30:18;23.40;97.50
13697;DHT22;6920;50.080;8.226;2023-06-24T20:32:45;23.30;97.60
13697;DHT22;6920;50.080;8.226;2023-06-24T20:35:12;23.30;97.90
13697;DHT22;6920;50.080;8.226;2023-06-24T20:37:41;23.20;97.90
13697;DHT22;6920;50.080;8.226;2023-06-24T20:40:09;23.20;98.00
13697;DHT22;6920;50.080;8.226;2023-06-24T20:45:04;23.10;98.10
13697;DHT22;6920;50.080;8.226;2023-06-24T20:47:31;23.10;98.40
13697;DHT22;6920;50.080;8.226;2023-06-24T20:49:58;23.00;98.40
13697;DHT22;6920;50.080;8.226;2023-06-24T20:52:26;23.10;98.30
13697;DHT22;6920;50.080;8.226;2023-06-24T20:54:54;23.00;98.50
13697;DHT22;6920;50.080;8.226;2023-06-24T20:57:22;22.70;98.60
13697;DHT22;6920;50.080;8.226;2023-06-24T20:59:49;22.90;98.60
13697;DHT22;6920;50.080;8.226;2023-06-24T21:02:17;22.80;99.20
13697;DHT22;6920;50.080;8.226;2023-06-24T21:04:44;22.70;99.20
13697;DHT22;6920;50.080;8.226;2023-06-24T21:09:38;22.60;99.40
13697;DHT22;6920;50.080;8.226;2023-06-24T21:12:08;22.60;99.40
13697;DHT22;6920;50.080;8.226;2023-06-24T21:14:36;22.60;99.70
13697;DHT22;6920;50.080;8.226;2023-06-24T21:17:03;22.40;99.80
13697;DHT22;6920;50.080;8.226;2023-06-24T21:19:31;22.40;99.90
13697;DHT22;6920;50.080;8.226;2023-06-24T21:21:58;22.30;99.90
13697;DHT22;6920;50.080;8.226;2023-06-24T21:24:26;22.30;99.90
13697;DHT22;6920;50.080;8.226;2023-06-24T21:26:53;22.20;99.90
13697;DHT22;6920;50.080;8.226;2023-06-24T21:29:23;22.20;99.90
13697;DHT22;6920;50.080;8.226;2023-06-24T21:34:19;22.10;99.90
13697;DHT22;6920;50.080;8.226;2023-06-24T21:39:13;22.10;99.90
13697;DHT22;6920;50.080;8.226;2023-06-24T21:41:40;22.10;99.90
13697;DHT22;6920;50.080;8.226;2023-06-24T21:46:37;22.10;99.90
13697;DHT22;6920;50.080;8.226;2023-06-24T21:49:05;22.00;99.90
13697;DHT22;6920;50.080;8.226;2023-06-24T21:51:32;21.90;99.90